createdAt,value
2016-12-12T07:16:29.033Z,36.3
2016-12-12T07:17:01.846Z,35.3
2016-12-12T07:17:34.802Z,35.4
2016-12-12T07:18:07.892Z,35.2
2016-12-12T07:18:40.031Z,35.5
2016-12-12T07:19:12.166Z,35.3
2016-12-12T07:19:44.311Z,35.1
2016-12-12T07:20:16.461Z,36.4
2016-12-12T07:20:48.608Z,35.4
2016-12-12T07:21:20.737Z,34.9
2016-12-12T07:21:52.875Z,34.6
2016-12-12T07:22:27.669Z,34.5
2016-12-12T07:22:59.823Z,34.7
2016-12-12T07:23:31.961Z,34.6
2016-12-12T07:24:07.210Z,34.7
2016-12-12T07:24:39.343Z,34.5
2016-12-12T07:25:11.475Z,34.4
2016-12-12T07:25:43.617Z,34.5
2016-12-12T07:26:15.744Z,34.5
2016-12-12T07:26:47.891Z,34.5
2016-12-12T07:27:20.020Z,34.5
2016-12-12T07:27:52.167Z,34.5
2016-12-12T07:28:24.305Z,34.5
2016-12-12T07:28:57.685Z,34.5
2016-12-12T07:29:29.817Z,34.5
2016-12-12T07:30:01.953Z,34.4
2016-12-12T07:30:34.094Z,34.5
2016-12-12T07:31:06.747Z,34.4
2016-12-12T07:31:38.891Z,34.1
2016-12-12T07:32:11.033Z,34.2
2016-12-12T07:32:43.824Z,34.3
2016-12-12T07:33:15.988Z,34.3
2016-12-12T07:33:48.124Z,34.4
2016-12-12T07:34:23.318Z,34.4
2016-12-12T07:34:55.453Z,34.5
2016-12-12T07:35:28.310Z,34.6
2016-12-12T07:36:02.773Z,34.5
2016-12-12T07:36:35.905Z,34.7
2016-12-12T07:37:08.041Z,34.9
2016-12-12T07:37:40.194Z,34.9
2016-12-12T07:38:13.851Z,34.8
2016-12-12T07:38:45.992Z,34.8
2016-12-12T07:39:18.772Z,34.7
2016-12-12T07:39:50.905Z,34.6
2016-12-12T07:40:23.036Z,34.7
2016-12-12T07:40:55.174Z,34.7
2016-12-12T07:41:28.323Z,34.6
2016-12-12T07:42:02.776Z,34.6
2016-12-12T07:42:35.413Z,34.6
2016-12-12T07:43:08.368Z,34.6
2016-12-12T07:43:42.319Z,34.7
2016-12-12T07:44:15.316Z,34.7
2016-12-12T07:44:51.112Z,34.7
2016-12-12T07:45:26.562Z,34.6
2016-12-12T07:45:58.696Z,34.6
2016-12-12T07:46:32.674Z,34.6
2016-12-12T07:47:04.798Z,34.6
2016-12-12T07:47:36.938Z,34.5
2016-12-12T07:48:09.600Z,34.5
2016-12-12T07:48:43.565Z,34.5
2016-12-12T07:49:17.129Z,34.5
2016-12-12T07:49:50.080Z,34.6
2016-12-12T07:50:24.107Z,34.5
2016-12-12T07:50:56.243Z,34.6
2016-12-12T07:51:28.399Z,34.3
2016-12-12T07:52:03.968Z,34.2
2016-12-12T07:52:36.970Z,34.2
2016-12-12T07:53:11.932Z,34.3
2016-12-12T07:53:45.035Z,34.3
2016-12-12T07:54:17.182Z,34.3
2016-12-12T07:54:49.332Z,34.2
2016-12-12T07:55:21.499Z,34.1
2016-12-12T07:55:53.640Z,34
2016-12-12T07:56:27.045Z,33.9
2016-12-12T07:56:59.191Z,33.9
2016-12-12T07:57:31.346Z,33.9
2016-12-12T07:58:04.024Z,33.9
2016-12-12T07:58:37.693Z,35.5
2016-12-12T07:59:09.830Z,34.1
2016-12-12T07:59:43.338Z,33.8
2016-12-12T08:00:15.476Z,33.9
2016-12-12T08:00:47.633Z,34
2016-12-12T08:01:20.326Z,34.6
2016-12-12T08:01:53.866Z,34.4
2016-12-12T08:02:26.010Z,33.9
2016-12-12T08:02:59.935Z,33.8
2016-12-12T08:03:32.087Z,33.8
2016-12-12T08:04:04.208Z,34
2016-12-12T08:04:36.332Z,33.8
2016-12-12T08:05:08.467Z,33.8
2016-12-12T08:05:40.619Z,33.9
2016-12-12T08:06:12.738Z,34.3
2016-12-12T08:06:44.888Z,34.3
2016-12-12T08:07:17.024Z,34
2016-12-12T08:07:49.160Z,34
2016-12-12T08:08:21.305Z,33.9
2016-12-12T08:08:53.457Z,33.9
2016-12-12T08:09:25.627Z,33.8
2016-12-12T08:09:57.806Z,33.9
2016-12-12T08:10:29.948Z,34
2016-12-12T08:11:02.093Z,34.2
2016-12-12T08:11:34.246Z,34.6
2016-12-12T08:12:06.386Z,35.9
2016-12-12T08:12:38.513Z,35.7
2016-12-12T08:13:12.552Z,36.4
2016-12-12T08:13:44.687Z,34.2
2016-12-12T08:14:16.813Z,33.9
2016-12-12T08:14:51.727Z,34.4
2016-12-12T08:15:26.550Z,37.6
2016-12-12T08:15:58.686Z,36.4
2016-12-12T08:16:33.381Z,34.5
2016-12-12T08:17:05.510Z,34.3
2016-12-12T08:17:37.649Z,34.3
2016-12-12T08:18:09.784Z,34.3
2016-12-12T08:18:42.886Z,34.4
2016-12-12T08:19:15.786Z,34
2016-12-12T08:19:47.923Z,34.3
2016-12-12T08:20:20.054Z,34.5
2016-12-12T08:20:52.192Z,34.3
2016-12-12T08:21:25.248Z,34.3
2016-12-12T08:21:57.402Z,34.3
2016-12-12T08:22:29.544Z,34.3
2016-12-12T08:23:02.281Z,34.4
2016-12-12T08:23:34.461Z,34.5
2016-12-12T08:24:06.602Z,34.5
2016-12-12T08:24:38.733Z,34.5
2016-12-12T08:25:10.869Z,34.5
2016-12-12T08:25:43.007Z,34.5
2016-12-12T08:26:15.739Z,34.4
2016-12-12T08:26:47.884Z,34.4
2016-12-12T08:27:20.036Z,34.5
2016-12-12T08:27:52.175Z,34.5
2016-12-12T08:28:24.308Z,34.5
2016-12-12T08:28:56.437Z,34.4
2016-12-12T08:29:28.575Z,34.7
2016-12-12T08:30:00.749Z,34.7
2016-12-12T08:30:32.888Z,34.8
2016-12-12T08:31:05.027Z,34.7
2016-12-12T08:31:37.163Z,34.8
2016-12-12T08:32:09.299Z,34.8
2016-12-12T08:32:41.455Z,34.8
2016-12-12T08:33:13.587Z,34.8
2016-12-12T08:33:45.760Z,34.8
2016-12-12T08:34:17.906Z,34.8
2016-12-12T08:34:50.877Z,34.8
2016-12-12T08:35:23.011Z,34.9
2016-12-12T08:35:55.165Z,34.9
2016-12-12T08:36:27.314Z,34.9
2016-12-12T08:36:59.448Z,34.9
2016-12-12T08:37:32.400Z,34.9
2016-12-12T08:38:05.342Z,35
2016-12-12T08:38:37.474Z,35
2016-12-12T08:39:13.017Z,34.9
2016-12-12T08:39:46.111Z,34.9
2016-12-12T08:40:18.252Z,34.9
2016-12-12T08:40:50.387Z,34.9
2016-12-12T08:41:22.533Z,34.9
2016-12-12T08:41:55.176Z,34
2016-12-12T08:42:27.317Z,33
2016-12-12T08:43:00.725Z,33.4
2016-12-12T08:43:32.845Z,33.3
2016-12-12T08:44:04.991Z,33.4
2016-12-12T08:44:37.123Z,34
2016-12-12T08:45:09.271Z,33.7
2016-12-12T08:45:41.401Z,33.6
2016-12-12T08:46:13.537Z,34.1
2016-12-12T08:46:45.676Z,34.4
2016-12-12T08:47:21.218Z,34.5
2016-12-12T08:47:53.343Z,34.4
2016-12-12T08:48:25.475Z,34.1
2016-12-12T08:48:57.624Z,34.1
2016-12-12T08:49:31.289Z,34.4
2016-12-12T08:50:05.238Z,33.5
2016-12-12T08:50:37.388Z,33.8
2016-12-12T08:51:12.165Z,33.6
2016-12-12T08:51:44.306Z,34
2016-12-12T08:52:16.448Z,33.7
2016-12-12T08:52:48.574Z,35
2016-12-12T08:53:20.711Z,34.5
2016-12-12T08:53:52.855Z,34.6
2016-12-12T08:54:24.990Z,34.7
2016-12-12T08:54:57.123Z,33.8
2016-12-12T08:55:29.269Z,32.8
2016-12-12T08:56:02.074Z,33.2
2016-12-12T08:56:34.210Z,33.6
2016-12-12T08:57:06.358Z,33.7
2016-12-12T08:57:38.507Z,33.7
2016-12-12T08:58:11.590Z,33.7
2016-12-12T08:58:43.742Z,34.2
2016-12-12T08:59:15.888Z,34.3
2016-12-12T08:59:48.011Z,33.3
2016-12-12T09:00:20.147Z,33.3
2016-12-12T09:00:52.285Z,33.4
2016-12-12T09:01:24.436Z,33.3
2016-12-12T09:01:56.583Z,33.8
2016-12-12T09:02:28.725Z,34
2016-12-12T09:03:01.540Z,34.2
2016-12-12T09:03:33.675Z,34.2
2016-12-12T09:04:05.822Z,34.4
2016-12-12T09:04:38.685Z,34.6
2016-12-12T09:05:10.831Z,34.5
2016-12-12T09:05:42.973Z,34.5
2016-12-12T09:06:15.114Z,34.4
2016-12-12T09:06:47.288Z,34.1
2016-12-12T09:07:20.137Z,33.3
2016-12-12T09:07:52.312Z,33.7
2016-12-12T09:08:24.445Z,34.2
2016-12-12T09:08:56.590Z,34.4
2016-12-12T09:09:28.723Z,34.4
2016-12-12T09:10:00.857Z,34.5
2016-12-12T09:10:33.011Z,34.4
2016-12-12T09:11:05.165Z,34.4
2016-12-12T09:11:37.300Z,34.4
2016-12-12T09:12:09.451Z,34.4
2016-12-12T09:12:41.582Z,34.5
2016-12-12T09:13:13.732Z,34.5
2016-12-12T09:13:45.861Z,34.5
2016-12-12T09:14:17.998Z,34.5
2016-12-12T09:14:52.630Z,34.4
2016-12-12T09:15:24.770Z,34.4
2016-12-12T09:15:56.903Z,34.5
2016-12-12T09:16:29.736Z,34.5
2016-12-12T09:17:01.880Z,34.4
2016-12-12T09:17:34.023Z,34
2016-12-12T09:18:06.738Z,33.8
2016-12-12T09:18:38.881Z,34.2
2016-12-12T09:19:11.010Z,34.3
2016-12-12T09:19:43.153Z,34.4
2016-12-12T09:20:16.749Z,34.3
2016-12-12T09:20:48.891Z,34.3
2016-12-12T09:21:21.038Z,33.9
2016-12-12T09:21:53.173Z,33.9
2016-12-12T09:22:25.306Z,33.8
2016-12-12T09:22:57.449Z,33.7
2016-12-12T09:23:29.592Z,33.7
2016-12-12T09:24:01.728Z,33.6
2016-12-12T09:24:33.869Z,33.7
2016-12-12T09:25:09.178Z,33.8
2016-12-12T09:25:41.311Z,34
2016-12-12T09:26:13.438Z,33.8
2016-12-12T09:26:45.587Z,33.6
2016-12-12T09:27:17.724Z,33.6
2016-12-12T09:27:49.870Z,33.5
2016-12-12T09:28:22.014Z,33.4
2016-12-12T09:28:54.170Z,33.4
2016-12-12T09:29:26.318Z,33.3
2016-12-12T09:29:58.455Z,33.3
2016-12-12T09:30:30.604Z,33.3
2016-12-12T09:31:02.734Z,33.1
2016-12-12T09:31:34.886Z,32.8
2016-12-12T09:32:07.019Z,32.8
2016-12-12T09:32:39.196Z,32.8
2016-12-12T09:33:11.336Z,33
2016-12-12T09:33:43.464Z,32.9
2016-12-12T09:34:15.603Z,33.3
2016-12-12T09:34:47.738Z,33.6
2016-12-12T09:35:21.927Z,33.6
2016-12-12T09:35:54.060Z,33.4
2016-12-12T09:36:26.198Z,33.4
2016-12-12T09:36:58.324Z,33.4
2016-12-12T09:37:30.469Z,33.5
2016-12-12T09:38:02.627Z,33.6
2016-12-12T09:38:34.759Z,33.6
2016-12-12T09:39:06.880Z,33.6
2016-12-12T09:39:39.034Z,33.6
2016-12-12T09:40:11.170Z,33.6
2016-12-12T09:40:43.303Z,33.6
2016-12-12T09:41:16.293Z,33.6
2016-12-12T09:41:48.427Z,33.6
2016-12-12T09:42:21.342Z,33.3
2016-12-12T09:42:53.504Z,33.4
2016-12-12T09:43:25.701Z,33.2
2016-12-12T09:43:57.834Z,33.2
2016-12-12T09:44:29.980Z,33.6
2016-12-12T09:45:02.130Z,33.6
2016-12-12T09:45:34.896Z,33.6
2016-12-12T09:46:07.063Z,33.6
2016-12-12T09:46:39.899Z,33.6
2016-12-12T09:47:12.930Z,33.6
2016-12-12T09:47:45.088Z,33.8
2016-12-12T09:48:17.226Z,33.9
2016-12-12T09:48:49.359Z,33.7
2016-12-12T09:49:21.504Z,33.6
2016-12-12T09:49:53.643Z,33.7
2016-12-12T09:50:25.784Z,33.6
2016-12-12T09:50:57.927Z,33.5
2016-12-12T09:51:30.855Z,33.6
2016-12-12T09:52:02.989Z,33.6
2016-12-12T09:52:35.124Z,33.6
2016-12-12T09:53:07.262Z,33.7
2016-12-12T09:53:39.405Z,33.7
2016-12-12T09:54:11.540Z,33.6
2016-12-12T09:54:43.712Z,33.1
2016-12-12T09:55:15.854Z,32.6
2016-12-12T09:55:48.926Z,32.4
2016-12-12T09:56:21.072Z,33.1
2016-12-12T09:56:53.226Z,33.7
2016-12-12T09:57:25.362Z,33.6
2016-12-12T09:57:57.502Z,33.6
2016-12-12T09:58:29.647Z,33.9
2016-12-12T09:59:01.787Z,33.8
2016-12-12T09:59:33.919Z,33.7
2016-12-12T10:00:06.059Z,33.8
2016-12-12T10:00:38.802Z,33.9
2016-12-12T10:01:10.962Z,33.9
2016-12-12T10:01:43.123Z,33.6
2016-12-12T10:02:15.258Z,33.6
2016-12-12T10:02:47.392Z,33.5
2016-12-12T10:03:19.529Z,33.1
2016-12-12T10:03:51.662Z,32.7
2016-12-12T10:04:23.824Z,32.4
2016-12-12T10:04:55.957Z,32.4
2016-12-12T10:05:28.089Z,32.5
2016-12-12T10:06:00.227Z,32.7
2016-12-12T10:06:32.366Z,32.7
2016-12-12T10:07:04.503Z,32.9
2016-12-12T10:07:36.653Z,33
2016-12-12T10:08:08.807Z,33
2016-12-12T10:08:40.989Z,33.1
2016-12-12T10:09:13.132Z,33.2
2016-12-12T10:09:45.261Z,32.8
2016-12-12T10:10:17.392Z,32.9
2016-12-12T10:10:49.530Z,32.7
2016-12-12T10:11:22.425Z,33.2
2016-12-12T10:11:54.570Z,32.9
2016-12-12T10:12:26.733Z,33
2016-12-12T10:12:58.864Z,33.2
2016-12-12T10:13:30.993Z,33.2
2016-12-12T10:14:03.132Z,33.1
2016-12-12T10:14:35.265Z,32.7
2016-12-12T10:15:07.887Z,32.9
2016-12-12T10:15:40.041Z,32.8
2016-12-12T10:16:12.184Z,32.7
2016-12-12T10:16:44.309Z,32.6
2016-12-12T10:17:16.443Z,32.7
2016-12-12T10:17:48.572Z,32.6
2016-12-12T10:18:20.713Z,32.6
2016-12-12T10:18:52.856Z,32.7
2016-12-12T10:19:25.006Z,32.9
2016-12-12T10:19:57.158Z,32.8
2016-12-12T10:20:29.295Z,33.1
2016-12-12T10:21:01.472Z,33
2016-12-12T10:21:33.618Z,32.8
2016-12-12T10:22:05.763Z,32.8
2016-12-12T10:22:37.907Z,32.8
2016-12-12T10:23:12.032Z,33.1
2016-12-12T10:23:44.178Z,33.1
2016-12-12T10:24:16.316Z,33
2016-12-12T10:24:48.457Z,33.1
2016-12-12T10:25:20.610Z,33.1
2016-12-12T10:25:54.192Z,33.1
2016-12-12T10:26:26.352Z,33
2016-12-12T10:26:59.277Z,32.8
2016-12-12T10:27:31.412Z,32.7
2016-12-12T10:28:03.563Z,32.5
2016-12-12T10:28:35.692Z,32.6
2016-12-12T10:29:08.770Z,32.3
2016-12-12T10:29:40.911Z,32.3
2016-12-12T10:30:13.031Z,32.6
2016-12-12T10:30:45.770Z,32.6
2016-12-12T10:31:18.715Z,32.4
2016-12-12T10:31:50.870Z,32.3
2016-12-12T10:32:23.012Z,32
2016-12-12T10:32:55.144Z,32.3
2016-12-12T10:33:27.267Z,32.4
2016-12-12T10:33:59.405Z,32.5
2016-12-12T10:34:31.549Z,32.3
2016-12-12T10:35:03.701Z,32.7
2016-12-12T10:35:35.839Z,32.7
2016-12-12T10:36:07.973Z,32.7
2016-12-12T10:36:40.117Z,32.4
2016-12-12T10:37:12.248Z,32.4
2016-12-12T10:37:44.400Z,32.4
2016-12-12T10:38:16.559Z,32.6
2016-12-12T10:38:48.711Z,32.5
2016-12-12T10:39:20.857Z,32.6
2016-12-12T10:39:53.000Z,32.5
2016-12-12T10:40:25.138Z,32.7
2016-12-12T10:40:57.270Z,32.6
2016-12-12T10:41:29.432Z,34
2016-12-12T10:42:01.576Z,33.6
2016-12-12T10:42:33.717Z,32.5
2016-12-12T10:43:05.881Z,32.2
2016-12-12T10:43:38.012Z,32.2
2016-12-12T10:44:10.143Z,32.7
2016-12-12T10:44:42.306Z,32.3
2016-12-12T10:45:14.452Z,32.5
2016-12-12T10:45:46.592Z,32.3
2016-12-12T10:46:20.846Z,32
2016-12-12T10:46:53.806Z,32.1
2016-12-12T10:47:25.946Z,32.4
2016-12-12T10:47:58.088Z,31.7
2016-12-12T10:48:31.447Z,31.8
2016-12-12T10:49:03.587Z,31.6
2016-12-12T10:49:37.814Z,33.3
2016-12-12T10:50:09.947Z,32.7
2016-12-12T10:50:42.082Z,32.1
2016-12-12T10:51:14.915Z,31.7
2016-12-12T10:51:47.063Z,31.5
2016-12-12T10:52:19.907Z,31.5
2016-12-12T10:52:52.043Z,32.1
2016-12-12T10:53:24.183Z,32.1
2016-12-12T10:53:56.335Z,32.2
2016-12-12T10:54:28.467Z,31.7
2016-12-12T10:55:00.617Z,31.7
2016-12-12T10:55:32.752Z,31.7
2016-12-12T10:56:04.898Z,31.8
2016-12-12T10:56:37.023Z,31.9
2016-12-12T10:57:09.147Z,31.9
2016-12-12T10:57:43.081Z,32.7
2016-12-12T10:58:15.211Z,31.8
2016-12-12T10:58:47.359Z,31.7
2016-12-12T10:59:19.492Z,31.6
2016-12-12T10:59:51.622Z,31.7
2016-12-12T11:00:23.773Z,31.7
2016-12-12T11:00:59.447Z,31.5
2016-12-12T11:01:31.592Z,31.7
2016-12-12T11:02:03.729Z,31.4
2016-12-12T11:02:36.816Z,31.6
2016-12-12T11:03:10.029Z,31.5
2016-12-12T11:03:42.168Z,31.4
2016-12-12T11:04:14.309Z,31.4
2016-12-12T11:04:46.442Z,31.4
2016-12-12T11:05:18.579Z,31.6
2016-12-12T11:05:50.722Z,31.7
2016-12-12T11:06:22.881Z,31.2
2016-12-12T11:06:55.035Z,31.4
2016-12-12T11:07:27.183Z,31.3
2016-12-12T11:07:59.332Z,31.3
2016-12-12T11:08:31.516Z,31.3
2016-12-12T11:09:04.424Z,31.3
2016-12-12T11:09:39.185Z,31.3
2016-12-12T11:10:11.345Z,31.3
2016-12-12T11:10:43.490Z,31.3
2016-12-12T11:11:15.639Z,31.3
2016-12-12T11:11:47.794Z,31.3
2016-12-12T11:12:19.934Z,31.3
2016-12-12T11:12:52.085Z,31.3
2016-12-12T11:13:24.228Z,31.4
2016-12-12T11:13:57.282Z,31.4
2016-12-12T11:14:29.448Z,31.3
2016-12-12T11:15:01.585Z,31.3
2016-12-12T11:15:33.764Z,31.6
2016-12-12T11:16:05.917Z,31.5
2016-12-12T11:16:38.828Z,31.5
2016-12-12T11:17:10.965Z,31.4
2016-12-12T11:17:43.680Z,31.3
2016-12-12T11:18:15.819Z,31.3
2016-12-12T11:18:47.952Z,31.4
2016-12-12T11:19:20.118Z,31.5
2016-12-12T11:19:52.258Z,31.6
2016-12-12T11:20:24.416Z,31.5
2016-12-12T11:20:56.548Z,31.3
2016-12-12T11:21:28.711Z,31
2016-12-12T11:22:02.328Z,30.9
2016-12-12T11:22:34.465Z,30.9
2016-12-12T11:23:06.602Z,30.9
2016-12-12T11:23:38.763Z,30.7
2016-12-12T11:24:10.901Z,30.8
2016-12-12T11:24:46.540Z,30.8
2016-12-12T11:25:18.688Z,30.9
2016-12-12T11:25:50.853Z,30.8
2016-12-12T11:26:22.992Z,30.9
2016-12-12T11:26:55.140Z,30.9
2016-12-12T11:27:27.277Z,30.8
2016-12-12T11:28:00.144Z,30.8
2016-12-12T11:28:32.291Z,30.8
2016-12-12T11:29:07.594Z,30.9
2016-12-12T11:29:39.730Z,30.9
2016-12-12T11:30:11.880Z,31
2016-12-12T11:30:44.024Z,31.2
2016-12-12T11:31:16.164Z,31.2
2016-12-12T11:31:48.305Z,31.1
2016-12-12T11:32:20.443Z,31
2016-12-12T11:32:52.582Z,31.1
2016-12-12T11:33:27.159Z,30.9
2016-12-12T11:33:59.296Z,31.1
2016-12-12T11:34:31.459Z,31
2016-12-12T11:35:04.320Z,30.9
2016-12-12T11:35:37.291Z,31
2016-12-12T11:36:09.420Z,31.1
2016-12-12T11:36:41.565Z,31.2
2016-12-12T11:37:13.706Z,31
2016-12-12T11:37:45.833Z,31
2016-12-12T11:38:17.969Z,31
2016-12-12T11:38:50.130Z,30.9
2016-12-12T11:39:24.415Z,30.7
2016-12-12T11:39:56.544Z,30.8
2016-12-12T11:40:28.676Z,30.9
2016-12-12T11:41:00.815Z,30.9
2016-12-12T11:41:32.956Z,30.9
2016-12-12T11:42:05.102Z,31.1
2016-12-12T11:42:37.249Z,31.1
2016-12-12T11:43:09.379Z,31.2
2016-12-12T11:43:41.518Z,31.5
2016-12-12T11:44:13.651Z,31.6
2016-12-12T11:44:48.260Z,31.5
2016-12-12T11:45:20.398Z,31.3
2016-12-12T11:45:52.541Z,31.2
2016-12-12T11:46:24.675Z,31.3
2016-12-12T11:46:56.809Z,31.4
2016-12-12T11:47:28.947Z,31.4
2016-12-12T11:48:01.088Z,31.2
2016-12-12T11:48:33.226Z,31.2
2016-12-12T12:19:11.032Z,31.8
2016-12-12T12:19:43.710Z,32.3
2016-12-12T12:20:17.069Z,31.8
2016-12-12T12:20:49.749Z,31.5
2016-12-12T12:21:23.110Z,31.3
2016-12-12T12:21:56.560Z,31.5
2016-12-12T12:22:29.252Z,31.7
2016-12-12T12:23:58.703Z,31.2
2016-12-12T12:24:32.890Z,30.7
2016-12-12T12:25:54.815Z,31.3
2016-12-12T12:26:27.510Z,31.3
2016-12-12T12:27:12.689Z,31.9
2016-12-12T12:27:45.368Z,31.9
2016-12-12T12:28:18.058Z,31.4
2016-12-12T12:29:05.002Z,31.6
2016-12-12T12:29:37.140Z,31.6
2016-12-12T12:30:09.274Z,31.1
2016-12-12T12:31:59.696Z,30.2
2016-12-12T12:32:32.379Z,31.1
2016-12-12T12:33:05.083Z,31.4
2016-12-12T12:33:37.766Z,30.3
2016-12-12T12:34:10.436Z,30.4
2016-12-12T12:34:43.131Z,30.5
2016-12-12T12:35:15.816Z,30.8
2016-12-12T12:35:48.497Z,31.1
2016-12-12T12:36:21.191Z,31.3
2016-12-12T12:36:53.880Z,31.6
2016-12-12T12:37:26.556Z,31.8
2016-12-12T12:37:59.247Z,31.8
2016-12-12T12:38:31.926Z,31.6
2016-12-12T12:39:04.596Z,31.7
2016-12-12T12:39:37.282Z,31.8
2016-12-12T12:40:09.966Z,31.7
2016-12-12T12:40:42.652Z,31.8
2016-12-12T12:41:15.331Z,31.6
2016-12-12T12:41:48.876Z,31.7
2016-12-12T12:42:21.559Z,31.6
2016-12-12T12:42:54.851Z,31.6
2016-12-12T12:43:27.527Z,31.7
2016-12-12T12:44:00.226Z,31.8
2016-12-12T12:44:34.296Z,31.7
2016-12-12T12:45:07.013Z,31.9
2016-12-12T12:45:39.706Z,31.9
2016-12-12T12:46:12.397Z,31.9
2016-12-12T12:46:45.075Z,32
2016-12-12T12:47:17.775Z,31.9
2016-12-12T12:47:50.471Z,31.9
2016-12-12T12:48:23.164Z,32
2016-12-12T12:48:58.261Z,31.9
2016-12-12T12:49:30.954Z,31.8
2016-12-12T12:50:03.647Z,32
2016-12-12T12:50:36.335Z,31.9
2016-12-12T12:51:11.564Z,32.1
2016-12-12T12:51:44.245Z,32.2
2016-12-12T12:52:16.941Z,32.1
2016-12-12T12:52:53.892Z,32.2
2016-12-12T12:53:26.627Z,32.1
2016-12-12T12:54:02.226Z,32
2016-12-12T12:54:34.952Z,32
2016-12-12T12:55:09.408Z,32
2016-12-12T12:55:42.099Z,32.1
2016-12-12T12:56:14.799Z,32
2016-12-12T12:56:47.517Z,32.1
2016-12-12T12:57:20.874Z,32
2016-12-12T12:57:53.576Z,32
2016-12-12T12:58:27.473Z,32.1
2016-12-12T12:59:00.171Z,32
2016-12-12T12:59:32.854Z,31.9
2016-12-12T13:00:05.558Z,31.8
2016-12-12T13:00:38.240Z,31.9
2016-12-12T13:01:10.927Z,32
2016-12-12T13:01:43.623Z,32.2
2016-12-12T15:08:28.238Z,33.5
2016-12-12T15:09:00.908Z,33.4
